メインページ
METAR-TAF:

METAR-TAF

空港 :

グアム国際空港

ハガニア, グアム, アメリカ合衆国

緯度: 13-29N, 経度: 144-48E, 海抜: 91m

現時点の気象観測

当レポートは25分前の03:54(UTC)に作成
北/北西の風 9kt
気温 31°C
湿度 79%
気圧 1009 hPa
視程: 16.1km
高度8000ftの千切れ雲あり

METAR: PGUM 200354Z 33009KT 10SM BKN080 31/27 A2979 RMK AO2 SLP078 T03110272

時間: 14:19 (04:19 UTC)

予報

当レポートは46分前の03:33(UTC)に作成
予報は20日の 04時(UTC)から 21日の 06時(UTC)まで有効
北/北西の風 8kt
視程: 10km
高度1700ftの雲はほとんどない
高度2500ftの雲は散在している
高度9000ftの雲は散在している
近辺でにわか雨
20日の 04時(UTC)から 20日の 06時(UTC)まで一時的に
視程: 6.4km
高度1700ftの雲は散在している
高度2500ftの曇り
にわか雨
20日の 0800時(UTC)から
北東の風 6kt
視程: 10km
高度1800ftの雲はほとんどない
高度3000ftの雲は散在している
近辺でにわか雨

TAF: PGUM 200333Z 2004/2106 34008KT P6SM VCSH FEW017 SCT025 SCT090 TEMPO 2004/2006 4SM SHRA SCT017 OVC025 FM200800 04006KT P6SM VCSH FEW018 SCT030

4,000以上の空港の気象観測と天気予報(METAR報とTAF報)

利用可能な観測所は地図上に黄色い丸と赤い丸で示す。

丸の上にカーソルを重ねると観測所名を参照できる。

次にクリックすると気象観測と天気予報を参照できる。

マップの切り替え:黒色「×」印の緑ボタンをクリックして拡大、「-」印の緑ボタンをクリックして縮小、緑色の三角印をクリックして隣りの地図に切り替え


METAR-TAF: